Newark Liberty International Airport
KEWR : now visible

Airfield :











YOU CAN JOIN US ON...

 
LOGIN :

Register | Disclaimer

   EN    FR    IT 

 









Legend :    VFR   Marginal VFR   IFR   Intensive IFR   Very Intensive IFR
Visi :
Ceiling :
>= 8 km
>= 3000ft
5 to 8 km
1000 to 3000 ft
1500m to 5 km
500 to 1000 ft
800 to 1500m
200 to 500 ft
< 800m
< 200 ft
Symbols :   Thunderstorms  Fog  Heavy snow  Heavy precipitations  Wind > 20 kt







- Airport Elevation : 18 ft
- IATA code : EWR


KEWR - Newark Liberty International

CURRENT METAR :
  • 210525Z 03009KT 2SM -FZRA BR BKN004 OVC024 00/00 A3004 RMK AO2 SFC VIS 4 CIG 003V005 P0010 T00000000 $

EXPIRED METARs :
  • 210510Z 03008KT 1 1/2SM FZRA BR BKN003 OVC024 00/M01 A3005 RMK AO2 SFC VIS 3 CIG 002V004 P0008 T00001006 $
  • 210451Z 02009KT 1 1/2SM -FZRA BR OVC004 00/M01 A3011 RMK AO2 SFC VIS 2 1/2 PLE18 SLP194 CIG 003V005 P0025 T00001006 400061033 $
  • 210419Z 03010KT 1 1/2SM -FZRA BR OVC004 00/M01 A3012 RMK AO2 SFC VIS 1 3/4 PLE18 PRESFR CIG 003V005 P0004 T00001006 $
  • 210351Z 03009KT 1 1/2SM -FZRAPL BR OVC003 00/M01 A3014 RMK AO2 SFC VIS 2 SNE03PLB03 SLP205 CIG 002V004 P0007 T00001006 $
  • 210305Z 02010KT 1 1/2SM -FZRAPL BR OVC003 M01/M01 A3020 RMK AO2 SFC VIS 2 SNE03PLB03 CIG 002V004 P0002 T10061011 $
  • 210251Z 02008KT 1 1/2SM -FZRASN BR OVC003 00/M01 A3020 RMK AO2 SLP225 CIG 002V004 P0007 60018 T00001006 58038

TAF KEWR
Valid from the 21 at 06:00 until the 22 at 12:00 UTC


210536Z 2106/2212 02005KT 2SM -RA OVC005
TEMPO 2106/2107 -FZRA OVC005
FM210900 VRB04KT 2SM BR OVC004
FM211100 27006KT 6SM BR BKN004 OVC007
FM211400 26010KT P6SM BKN015 BKN025
FM211600 27012KT P6SM SCT025 SCT250
FM211800 29013G20KT P6SM SCT250
FM220000 30010KT P6SM SCT250
FM220600 32007KT P6SM SCT250
KZNY FIR / North America



MET'MAP, your aeronautical weather chart ! - Copyright ORBIFLY December 2007 - Disclaimer

ORBIFLY MET'MAP TEAM :

Programming & Development : Alexandra Zaïnal
Concept & Development : Baudouin d'Aumeries
Co-Development & Prog : Marc-Olivier Méhu
Technical & hardware support : Manuel Goepfert

Contact : metmap@orbifly.com




SOURCES & CREDITS :

   NOAA       Earth
Advisory